Latest Weather Observations for Essendon Airport

IDV60801

Issued at 12:02 pm EST Friday 28 August 2015 (issued every 30 minutes, with the page automatically refreshed every 10 minutes)

About weather observations | Map of weather stations | Latest weather observations for VIC | Other Formats
Station Details ID: 086038 Name: ESSENDON AIRPORT Lat: -37.73 Lon: 144.91 Height: 78.4 m
Data from the previous 72 hours. | See also: Recent months at Essendon Airport
Date/Time
EST
Temp
°C
App
Temp
°C
Dew
Point
Rel
Hum
%
Delta-T
°C
Wind Press
QNH
hPa
Press
MSL
hPa
Rain
since 9 am
mm
Dir
 
Spd
km/h
Gust
km/h
Spd
kts
Gust
kts
28/12:00pm 11.4 6.2 7.1 75 2.1 S 24 33 13 18 1025.7 1025.9 0.0
28/11:30am 10.7 5.3 7.9 83 1.4 SSW 26 35 14 19 1026.1 1026.3 0.0
28/11:00am 10.8 7.1 8.0 83 1.4 SSW 17 24 9 13 1026.2 1026.4 0.0
28/10:30am 10.0 6.5 8.6 91 0.7 SW 17 20 9 11 1026.2 1026.4 0.0
28/10:00am 9.4 6.4 9.3 99 0.0 SW 15 19 8 10 1026.1 1026.3 0.0
28/09:40am 9.2 5.2 9.1 99 0.0 SW 20 28 11 15 1026.0 1026.2 0.0
28/09:30am 9.1 4.3 8.8 98 0.1 SW 24 35 13 19 1026.0 1026.2 0.0
28/09:26am 9.4 4.7 9.1 98 0.1 SW 24 32 13 17 1026.0 1026.2 0.0
28/09:00am 8.7 5.2 8.6 99 0.0 WSW 17 22 9 12 1025.9 1026.1 7.0
28/08:30am 8.1 5.2 8.0 99 0.0 WSW 13 19 7 10 1025.9 1026.1 7.0
28/08:00am 7.8 4.0 7.7 99 0.0 W 17 20 9 11 1025.5 1025.7 7.0
28/07:55am 8.1 4.4 8.0 99 0.0 W 17 20 9 11 1025.4 1025.6 7.0
28/07:37am 7.5 4.0 7.4 99 0.0 SW 15 19 8 10 1025.4 1025.6 6.8
28/07:30am 7.5 4.0 7.4 99 0.0 SW 15 20 8 11 1025.4 1025.6 6.6
28/07:00am 6.8 2.8 6.7 99 0.0 WSW 17 20 9 11 1025.0 1025.2 6.4
28/06:30am 6.4 2.3 6.3 99 0.0 WSW 17 20 9 11 1024.7 1024.8 6.4
28/06:00am 6.5 3.2 6.4 99 0.0 WSW 13 19 7 10 1024.5 1024.6 6.4
28/05:30am 6.1 3.1 6.0 99 0.0 WSW 11 13 6 7 1024.2 1024.3 6.4
28/05:00am 6.8 3.2 6.7 99 0.0 WSW 15 19 8 10 1024.0 1024.1 6.4
28/04:30am 6.5 2.8 6.4 99 0.0 WSW 15 19 8 10 1023.8 1023.9 6.4
28/04:00am 6.7 3.3 6.1 96 0.3 WSW 13 17 7 9 1023.8 1023.9 6.4
28/03:30am 7.9 4.0 7.1 95 0.4 WSW 17 19 9 10 1023.9 1024.0 6.4
28/03:00am 8.2 4.4 7.4 95 0.4 WSW 17 20 9 11 1023.9 1024.0 6.4
28/02:30am 8.1 4.7 7.7 97 0.2 WSW 15 19 8 10 1024.0 1024.1 6.4
28/02:00am 7.7 4.6 7.3 97 0.2 WSW 13 15 7 8 1024.0 1024.1 6.4
28/01:30am 7.9 4.7 7.0 94 0.4 SW 13 17 7 9 1024.1 1024.2 6.4
28/01:00am 8.8 5.8 7.7 93 0.5 SW 13 19 7 10 1023.8 1023.9 6.4
28/12:30am 9.4 5.7 8.0 91 0.7 SSW 17 20 9 11 1023.6 1023.7 6.4
28/12:00am 9.8 6.3 8.6 92 0.6 SSW 17 22 9 12 1023.6 1023.7 6.4
 
Date/Time
EST
Temp
°C
App
Temp
°C
Dew
Point
Rel
Hum
%
Delta-T
°C
Wind Press
QNH
hPa
Press
MSL
hPa
Rain
since 9 am
mm
Dir
 
Spd
km/h
Gust
km/h
Spd
kts
Gust
kts
27/11:30pm 10.4 5.5 8.3 87 1.0 SSW 24 33 13 18 1023.5 1023.6 6.4
27/11:00pm 10.5 5.8 9.1 91 0.7 SSW 24 32 13 17 1023.4 1023.5 6.4
27/10:30pm 10.5 5.4 9.3 92 0.6 SSW 26 35 14 19 1023.1 1023.2 6.4
27/10:05pm 10.4 6.2 9.8 96 0.3 S 22 30 12 16 1023.0 1023.1 6.4
27/10:00pm 10.4 6.3 10.1 98 0.2 S 22 30 12 16 1022.9 1023.0 6.4
27/09:30pm 10.6 6.6 10.4 99 0.1 SSW 22 30 12 16 1022.8 1022.9 6.4
27/09:00pm 10.7 6.0 10.7 100 0.0 SSW 26 33 14 18 1022.5 1022.6 6.4
27/08:30pm 10.9 7.4 10.9 100 0.0 S 20 28 11 15 1022.2 1022.3 6.2
27/08:00pm 11.0 6.7 10.8 99 0.1 SSW 24 35 13 19 1022.0 1022.1 6.0
27/07:30pm 11.1 7.3 11.1 100 0.0 SSW 22 30 12 16 1021.7 1021.8 6.0
27/07:00pm 11.1 6.8 10.9 99 0.1 SSW 24 32 13 17 1021.4 1021.5 6.0
27/06:30pm 11.3 7.9 11.3 100 0.0 SSW 20 30 11 16 1021.0 1021.1 5.8
27/06:00pm 11.3 7.5 11.1 99 0.1 SSW 22 33 12 18 1020.7 1020.8 5.8
27/05:30pm 11.3 7.9 11.1 99 0.1 SSW 20 28 11 15 1020.2 1020.3 5.6
27/05:00pm 11.4 8.2 11.2 99 0.1 SSW 19 24 10 13 1020.1 1020.2 5.6
27/04:30pm 11.4 8.0 11.2 99 0.1 SW 20 26 11 14 1019.8 1019.9 5.2
27/04:24pm 11.5 8.3 11.3 99 0.1 SW 19 24 10 13 1019.8 1019.9 5.2
27/04:00pm 11.5 9.1 11.3 99 0.1 SW 15 19 8 10 1019.7 1019.8 5.0
27/03:30pm 11.4 8.2 11.2 99 0.1 SW 19 22 10 12 1019.8 1019.9 4.8
27/03:15pm 11.4 8.6 11.2 99 0.1 SW 17 22 9 12 1019.8 1019.9 4.8
27/03:00pm 11.4 8.6 11.2 99 0.1 SW 17 22 9 12 1019.8 1019.9 4.6
27/02:30pm 11.1 8.6 10.9 99 0.1 SW 15 19 8 10 1019.9 1020.0 4.4
27/02:00pm 10.9 8.3 10.7 99 0.1 SW 15 17 8 9 1020.1 1020.2 4.0
27/01:30pm 10.9 8.7 10.7 99 0.1 SW 13 15 7 8 1020.3 1020.4 3.0
27/01:00pm 10.8 8.5 10.6 99 0.1 SW 13 15 7 8 1020.5 1020.6 2.2
27/12:30pm 10.8 8.9 10.6 99 0.1 WSW 11 13 6 7 1020.8 1020.9 1.6
27/12:00pm 10.5 8.1 10.2 98 0.2 W 13 17 7 9 1021.0 1021.1 1.0
27/11:56am 10.4 8.0 10.1 98 0.2 W 13 17 7 9 1021.1 1021.2 0.8
27/11:54am 10.6 8.3 10.3 98 0.2 W 13 17 7 9 1021.1 1021.2 0.8
27/11:30am 10.4 8.0 9.9 97 0.3 W 13 15 7 8 1021.2 1021.3 0.4
27/11:01am 10.2 8.5 9.7 97 0.3 W 9 13 5 7 1021.3 1021.4 0.4
27/11:00am 10.2 8.5 9.7 97 0.3 W 9 13 5 7 1021.3 1021.4 0.4
27/10:30am 9.9 7.7 9.4 97 0.2 SW 11 15 6 8 1021.2 1021.3 0.4
27/10:00am 10.1 7.6 9.8 98 0.2 W 13 17 7 9 1021.5 1021.6 0.2
27/09:30am 9.8 7.2 9.3 97 0.2 WSW 13 17 7 9 1021.6 1021.7 0.0
27/09:00am 9.7 6.8 9.6 99 0.0 WSW 15 17 8 9 1021.7 1021.8 1.6
27/08:30am 9.6 7.0 9.5 99 0.0 W 13 15 7 8 1021.8 1021.9 1.6
27/08:00am 9.6 8.1 9.3 98 0.1 W 7 9 4 5 1021.6 1021.7 1.6
27/07:30am 9.4 7.5 8.9 97 0.2 SSW 9 9 5 5 1021.1 1021.2 1.4
27/07:00am 9.4 8.0 8.9 97 0.2 WNW 6 7 3 4 1021.1 1021.2 1.4
27/06:30am 9.4 7.4 8.6 95 0.4 WNW 9 11 5 6 1020.9 1021.0 1.2
27/06:00am 9.4 8.9 8.0 91 0.7 CALM 0 0 0 0 1020.4 1020.5 0.6
27/05:30am 9.5 8.9 7.6 88 0.9 CALM 0 0 0 0 1020.4 1020.5 0.0
27/05:00am 9.7 8.3 7.3 85 1.1 NW 4 9 2 5 1020.4 1020.5 0.0
27/04:30am 9.7 7.9 7.3 85 1.1 NW 6 7 3 4 1020.2 1020.3 0.0
27/04:00am 9.5 7.5 7.3 86 1.0 NW 7 9 4 5 1020.6 1020.7 0.0
27/03:30am 9.4 8.0 7.3 87 1.0 WNW 4 7 2 4 1020.6 1020.7 0.0
27/03:00am 9.3 7.5 7.3 87 0.9 WNW 6 9 3 5 1020.9 1021.0 0.0
27/02:30am 9.4 7.4 7.3 87 1.0 WNW 7 9 4 5 1021.1 1021.2 0.0
27/02:00am 9.7 7.9 7.3 85 1.1 WNW 6 9 3 5 1021.5 1021.6 0.0
27/01:30am 9.7 7.8 7.5 86 1.1 WNW 7 11 4 6 1021.8 1021.9 0.0
27/01:00am 9.6 7.6 6.9 83 1.3 W 7 9 4 5 1021.9 1022.0 0.0
27/12:30am 10.0 7.5 6.7 80 1.6 WNW 9 13 5 7 1022.2 1022.3 0.0
27/12:00am 10.1 7.3 6.8 80 1.6 WNW 11 13 6 7 1022.3 1022.4 0.0
 
Date/Time
EST
Temp
°C
App
Temp
°C
Dew
Point
Rel
Hum
%
Delta-T
°C
Wind Press
QNH
hPa
Press
MSL
hPa
Rain
since 9 am
mm
Dir
 
Spd
km/h
Gust
km/h
Spd
kts
Gust
kts
26/11:30pm 10.1 7.7 7.0 81 1.5 WNW 9 9 5 5 1022.5 1022.6 0.0
26/11:00pm 10.4 8.9 6.9 79 1.7 WNW 4 7 2 4 1022.8 1022.9 0.0
26/10:30pm 10.7 8.3 7.0 78 1.8 W 9 13 5 7 1022.9 1023.0 0.0
26/10:00pm 10.8 10.0 6.7 76 1.9 CALM 0 0 0 0 1023.3 1023.4 0.0
26/09:30pm 10.7 8.9 7.2 79 1.7 SW 6 7 3 4 1023.3 1023.4 0.0
26/09:00pm 10.4 8.5 6.7 78 1.7 SW 6 7 3 4 1023.2 1023.3 0.0
26/08:30pm 11.1 9.0 6.6 74 2.1 SW 7 9 4 5 1023.2 1023.3 0.0
26/08:00pm 11.4 8.9 6.5 72 2.3 SW 9 11 5 6 1023.2 1023.3 0.0
26/07:30pm 11.6 9.4 6.3 70 2.5 SW 7 9 4 5 1023.1 1023.2 0.0
26/07:00pm 12.2 9.8 5.4 63 3.1 SSW 7 9 4 5 1023.0 1023.1 0.0
26/06:30pm 12.6 9.4 5.3 61 3.4 SSW 11 15 6 8 1022.9 1023.0 0.0
26/06:00pm 12.9 10.3 6.0 63 3.3 SSW 9 11 5 6 1022.6 1022.7 0.0
26/05:30pm 13.7 10.8 6.6 62 3.4 SSE 11 15 6 8 1022.5 1022.6 0.0
26/05:00pm 14.2 11.3 6.6 60 3.7 S 11 13 6 7 1022.5 1022.6 0.0
26/04:30pm 14.6 11.7 6.7 59 3.8 S 11 15 6 8 1022.2 1022.3 0.0
26/04:00pm 14.8 11.9 6.4 57 4.1 S 11 15 6 8 1022.4 1022.5 0.0
26/03:30pm 15.3 13.0 7.3 59 4.0 S 9 13 5 7 1022.6 1022.7 0.0
26/03:00pm 15.2 12.7 6.7 57 4.1 SSE 9 15 5 8 1022.6 1022.7 0.0
26/02:30pm 15.5 13.8 6.0 53 4.6 E 4 11 2 6 1022.8 1022.9 0.0
26/02:00pm 14.9 12.7 6.2 56 4.2 NE 7 11 4 6 1023.0 1023.1 0.0
26/01:30pm 14.4 12.2 6.3 58 3.9 SE 7 13 4 7 1023.1 1023.2 0.0
26/01:00pm 14.6 13.1 6.7 59 3.8 SSE 4 13 2 7 1023.6 1023.7 0.0
26/12:30pm 13.7 12.3 7.2 65 3.2 NE 4 11 2 6 1024.1 1024.2 0.0
26/12:00pm 12.8 11.7 6.8 67 2.9 NNE 2 6 1 3 1024.9 1025.0 0.0
26/11:30am 12.2 10.6 6.5 68 2.7 W 4 9 2 5 1025.4 1025.6 0.0
26/11:00am 12.0 10.1 6.9 71 2.4 SW 6 7 3 4 1025.6 1025.8 0.0
26/10:30am 11.3 10.5 6.6 73 2.2 CALM 0 0 0 0 1025.8 1026.0 0.0
26/10:00am 10.8 8.7 6.7 76 1.9 WNW 7 9 4 5 1026.0 1026.2 0.0
26/09:30am 10.5 8.6 7.4 81 1.5 NW 7 9 4 5 1026.0 1026.2 0.0
26/09:00am 10.0 8.1 7.6 85 1.1 NW 7 9 4 5 1025.9 1026.1 0.0
26/08:30am 9.2 6.8 7.2 87 0.9 WNW 9 9 5 5 1025.9 1026.1 0.0
26/08:00am 8.6 6.2 7.2 91 0.7 WNW 9 11 5 6 1025.7 1025.9 0.0
26/07:30am 8.4 6.0 6.9 90 0.7 W 9 11 5 6 1025.6 1025.8 0.0
26/07:00am 8.2 5.4 6.8 91 0.6 WNW 11 13 6 7 1025.4 1025.6 0.0
26/06:30am 8.2 5.4 6.8 91 0.7 NW 11 15 6 8 1025.2 1025.4 0.0
26/06:00am 8.2 5.8 6.8 91 0.6 WNW 9 11 5 6 1025.1 1025.3 0.0
26/05:30am 8.2 5.3 6.7 90 0.7 W 11 13 6 7 1025.1 1025.3 0.0
26/05:00am 8.1 5.6 6.7 91 0.6 W 9 11 5 6 1025.0 1025.2 0.0
26/04:30am 8.0 5.2 6.8 92 0.6 WNW 11 13 6 7 1025.0 1025.2 0.0
26/04:00am 7.7 4.8 6.3 91 0.6 WNW 11 13 6 7 1025.0 1025.2 0.0
26/03:30am 8.3 5.4 6.3 87 0.9 WNW 11 13 6 7 1025.2 1025.4 0.0
26/03:00am 8.5 5.9 6.1 85 1.1 WNW 9 13 5 7 1025.3 1025.5 0.0
26/02:30am 9.3 7.1 6.2 81 1.4 WSW 7 9 4 5 1025.7 1025.9 0.0
26/02:00am 9.5 8.6 5.9 78 1.6 CALM 0 0 0 0 1026.0 1026.2 0.0
26/01:30am 9.5 8.5 5.7 77 1.7 CALM 0 0 0 0 1026.1 1026.3 0.0
26/01:00am 9.7 7.6 5.9 77 1.7 SE 6 7 3 4 1026.2 1026.4 0.0
26/12:30am 9.8 7.7 6.0 77 1.8 SE 6 9 3 5 1026.2 1026.4 0.0
26/12:00am 10.0 7.4 6.0 76 1.8 ESE 9 11 5 6 1026.3 1026.5 0.0
 
Date/Time
EST
Temp
°C
App
Temp
°C
Dew
Point
Rel
Hum
%
Delta-T
°C
Wind Press
QNH
hPa
Press
MSL
hPa
Rain
since 9 am
mm
Dir
 
Spd
km/h
Gust
km/h
Spd
kts
Gust
kts
25/11:30pm 9.9 6.9 5.9 76 1.8 ESE 11 15 6 8 1026.3 1026.5 0.0
25/11:00pm 9.7 7.0 5.7 76 1.8 SE 9 13 5 7 1026.4 1026.6 0.0
25/10:30pm 9.8 6.3 5.6 75 1.9 ESE 13 20 7 11 1026.5 1026.7 0.0
25/10:00pm 10.1 6.7 5.7 74 2.0 SE 13 20 7 11 1026.4 1026.6 0.0
25/09:30pm 10.7 6.9 5.9 72 2.2 SE 15 24 8 13 1026.5 1026.7 0.0
25/09:00pm 11.1 6.3 5.6 69 2.5 SE 20 32 11 17 1026.4 1026.6 0.0
25/08:30pm 11.1 5.5 5.4 68 2.6 SE 24 37 13 20 1026.2 1026.4 0.0
25/08:00pm 11.4 6.1 5.1 65 2.9 SE 22 30 12 16 1026.0 1026.2 0.0
25/07:30pm 11.8 6.9 5.0 63 3.1 SSE 20 30 11 16 1025.8 1026.0 0.0
25/07:00pm 12.0 7.2 5.4 64 3.0 SSE 20 28 11 15 1025.8 1026.0 0.0
25/06:30pm 12.2 7.6 5.4 63 3.2 SE 19 28 10 15 1025.8 1026.0 0.0
25/06:00pm 12.4 6.7 5.1 61 3.4 SE 24 33 13 18 1025.6 1025.8 0.0
25/05:30pm 12.6 7.8 5.5 62 3.3 SE 20 32 11 17 1025.2 1025.4 0.0
25/05:00pm 13.0 7.4 5.4 60 3.5 SE 24 35 13 19 1025.0 1025.2 0.0
25/04:30pm 12.8 6.9 5.7 62 3.3 SE 26 33 14 18 1025.0 1025.2 0.0
25/04:00pm 13.3 7.2 6.4 63 3.3 SE 28 35 15 19 1024.9 1025.0 0.0
25/03:30pm 13.7 7.6 6.8 63 3.3 SE 28 37 15 20 1024.8 1024.9 0.0
25/03:00pm 13.4 7.9 7.4 67 2.9 SE 26 35 14 19 1024.9 1025.0 0.0
25/02:30pm 13.4 7.1 7.4 67 2.9 SE 30 39 16 21 1024.9 1025.0 0.0
25/02:03pm 11.8 8.5 9.7 87 1.1 SSW 17 22 9 12 1024.9 1025.0 0.0
25/02:00pm 11.7 8.5 9.8 88 1.0 SSW 17 20 9 11 1024.9 1025.0 0.0
25/01:42pm 11.5 8.3 10.1 91 0.7 S 17 24 9 13 1025.1 1025.3 0.0
25/01:30pm 11.4 7.9 10.3 93 0.6 SSW 19 24 10 13 1025.1 1025.3 0.0
25/01:12pm 11.2 7.0 9.9 92 0.7 S 22 30 12 16 1025.2 1025.4 0.0
25/01:00pm 11.4 7.5 9.5 88 1.0 SSE 20 30 11 16 1025.4 1025.6 0.0
25/12:42pm 11.1 8.9 9.4 89 0.9 S 11 19 6 10 1025.6 1025.8 0.0
25/12:37pm 11.0 7.6 9.3 89 0.9 S 17 30 9 16 1025.6 1025.8 0.0
25/12:30pm 11.0 7.0 8.9 87 1.0 SSE 20 32 11 17 1025.7 1025.9 0.0
25/12:26pm 11.1 6.6 8.7 85 1.2 SSE 22 32 12 17 1025.8 1026.0 0.0

Other Formats:

Comma delimited format used in spreadsheet applications
http://www.bom.gov.au/fwo/IDV60801/IDV60801.95866.axf

JavaScript Object Notation format (JSON) in row-major order
http://www.bom.gov.au/fwo/IDV60801/IDV60801.95866.json